createdAt,value
2022-11-03T00:03:15.862Z,75.70
2022-11-03T00:08:17.407Z,75.88
2022-11-03T00:13:18.942Z,76.01
2022-11-03T00:18:20.557Z,76.38
2022-11-03T00:23:22.085Z,76.38
2022-11-03T00:28:23.613Z,76.19
2022-11-03T00:33:26.919Z,76.75
2022-11-03T00:38:29.621Z,76.67
2022-11-03T00:43:33.599Z,76.54
2022-11-03T00:48:36.705Z,76.79
2022-11-03T00:53:46.930Z,77.22
2022-11-03T00:58:49.960Z,76.94
2022-11-03T01:04:12.523Z,76.99
2022-11-03T01:09:14.595Z,77.10
2022-11-03T01:14:16.952Z,77.22
2022-11-03T01:19:18.518Z,77.13
2022-11-03T01:24:20.204Z,77.26
2022-11-03T01:29:21.826Z,77.25
2022-11-03T01:34:23.479Z,77.33
2022-11-03T01:39:25.041Z,77.19
2022-11-03T01:44:31.103Z,77.32
2022-11-03T01:49:32.584Z,77.38
2022-11-03T01:54:36.502Z,77.17
2022-11-03T01:59:39.453Z,77.39
2022-11-03T02:04:42.492Z,77.45
2022-11-03T02:09:44.129Z,77.55
2022-11-03T02:14:56.792Z,77.27
2022-11-03T02:20:12.055Z,77.23
2022-11-03T02:25:36.818Z,77.37
2022-11-03T02:30:52.101Z,77.35
2022-11-03T02:36:15.871Z,77.26
2022-11-03T02:41:18.779Z,77.28
2022-11-03T02:46:21.759Z,77.24
2022-11-03T02:51:24.623Z,77.33
2022-11-03T02:56:26.329Z,77.08
2022-11-03T03:01:39.835Z,77.03
2022-11-03T03:07:05.242Z,77.11
2022-11-03T03:12:10.645Z,77.27
2022-11-03T03:17:44.781Z,77.42
2022-11-03T03:23:21.923Z,77.50
2022-11-03T03:28:34.655Z,77.48
2022-11-03T03:33:39.801Z,77.27
2022-11-03T03:38:53.324Z,78.17
2022-11-03T03:43:59.043Z,78.05
2022-11-03T03:49:00.718Z,78.09
2022-11-03T03:54:02.308Z,78.65
2022-11-03T03:59:04.574Z,78.73
2022-11-03T04:04:06.166Z,78.41
2022-11-03T04:09:09.496Z,78.49
2022-11-03T04:14:29.644Z,78.08
2022-11-03T04:19:49.518Z,78.17
2022-11-03T04:24:52.216Z,78.23
2022-11-03T04:29:57.998Z,78.30
2022-11-03T04:35:00.084Z,78.55
2022-11-03T04:40:01.933Z,78.51
2022-11-03T04:45:14.458Z,78.51
2022-11-03T04:50:21.870Z,78.46
2022-11-03T04:55:24.443Z,78.17
2022-11-03T05:00:26.240Z,78.19
2022-11-03T05:05:27.871Z,78.52
2022-11-03T05:10:29.628Z,79.12
2022-11-03T05:15:42.706Z,80.00
2022-11-03T05:21:12.492Z,80.32
2022-11-03T05:26:28.403Z,80.25
2022-11-03T05:31:32.219Z,80.25
2022-11-03T05:36:33.964Z,80.34
2022-11-03T05:41:36.048Z,79.92
2022-11-03T05:46:38.083Z,80.15
2022-11-03T05:51:41.929Z,80.09
2022-11-03T05:56:43.497Z,80.22
2022-11-03T06:01:45.190Z,80.31
2022-11-03T06:06:55.795Z,80.33
2022-11-03T06:12:00.551Z,80.54
2022-11-03T06:17:05.918Z,80.28
2022-11-03T06:22:25.843Z,80.67
2022-11-03T06:27:32.103Z,80.58
2022-11-03T06:32:34.014Z,80.61
2022-11-03T06:37:35.579Z,80.51
2022-11-03T06:42:39.925Z,80.42
2022-11-03T06:47:41.532Z,80.34
2022-11-03T06:57:55.773Z,80.09
2022-11-03T07:03:19.260Z,80.29
2022-11-03T07:08:28.850Z,80.42
2022-11-03T07:13:32.691Z,80.28
2022-11-03T07:18:44.399Z,80.50
2022-11-03T07:23:47.204Z,80.52
2022-11-03T07:28:49.272Z,80.32
2022-11-03T07:33:56.825Z,79.65
2022-11-03T07:39:01.350Z,79.62
2022-11-03T07:44:03.142Z,79.37
2022-11-03T07:49:09.021Z,79.23
2022-11-03T07:54:45.239Z,78.90
2022-11-03T07:59:50.496Z,78.55
2022-11-03T08:04:52.133Z,77.67
2022-11-03T08:09:54.284Z,74.53
2022-11-03T08:14:55.839Z,74.86
2022-11-03T08:19:57.418Z,75.73
2022-11-03T08:24:58.947Z,75.38
2022-11-03T08:30:00.490Z,73.96
2022-11-03T08:35:02.034Z,73.85
2022-11-03T08:40:04.567Z,74.06
2022-11-03T08:45:06.986Z,73.61
2022-11-03T08:50:08.669Z,72.28
2022-11-03T08:55:10.220Z,72.01
2022-11-03T09:00:12.467Z,73.08
2022-11-03T09:05:14.204Z,71.45
2022-11-03T09:15:22.366Z,70.32
2022-11-03T09:20:24.448Z,70.28
2022-11-03T09:25:26.022Z,69.35
2022-11-03T09:30:27.680Z,68.39
2022-11-03T09:35:29.225Z,68.74
2022-11-03T09:40:30.799Z,66.96
2022-11-03T09:45:32.539Z,67.94
2022-11-03T09:50:34.137Z,68.18
2022-11-03T09:55:35.800Z,68.70
2022-11-03T10:00:37.368Z,67.77
2022-11-03T10:05:40.095Z,67.99
2022-11-03T10:10:41.744Z,68.91
2022-11-03T10:15:43.391Z,69.23
2022-11-03T10:20:45.455Z,69.41
2022-11-03T10:25:47.057Z,68.33
2022-11-03T10:31:14.347Z,68.44
2022-11-03T10:36:15.888Z,68.72
2022-11-03T10:41:27.901Z,66.90
2022-11-03T10:46:49.029Z,67.63
2022-11-03T10:51:53.777Z,68.00
2022-11-03T10:56:55.383Z,67.46
2022-11-03T11:01:58.743Z,67.63
2022-11-03T11:07:00.429Z,66.70
2022-11-03T11:12:22.446Z,67.32
2022-11-03T11:17:48.005Z,67.65
2022-11-03T11:22:50.747Z,67.38
2022-11-03T11:27:58.294Z,67.66
2022-11-03T11:33:21.588Z,66.55
2022-11-03T11:38:55.704Z,65.82
2022-11-03T11:44:35.901Z,65.25
2022-11-03T11:49:37.550Z,65.55
2022-11-03T11:54:43.069Z,64.81
2022-11-03T11:59:47.047Z,64.98
2022-11-03T12:04:52.379Z,64.23
2022-11-03T12:09:53.919Z,63.81
2022-11-03T12:14:55.459Z,63.99
2022-11-03T12:19:57.043Z,63.17
2022-11-03T12:25:08.520Z,63.31
2022-11-03T12:30:16.094Z,63.27
2022-11-03T12:35:17.982Z,63.62
2022-11-03T12:40:19.560Z,62.30
2022-11-03T12:45:21.104Z,62.97
2022-11-03T12:50:22.698Z,63.00
2022-11-03T12:55:24.289Z,62.64
2022-11-03T13:00:25.865Z,62.85
2022-11-03T13:05:27.435Z,63.76
2022-11-03T13:10:28.974Z,62.20
2022-11-03T13:15:30.511Z,63.08
2022-11-03T13:20:33.150Z,62.33
2022-11-03T13:25:34.784Z,62.78
2022-11-03T13:30:36.639Z,62.24
2022-11-03T13:35:38.235Z,62.65
2022-11-03T13:40:56.217Z,62.68
2022-11-03T13:46:02.374Z,63.02
2022-11-03T13:51:04.194Z,63.79
2022-11-03T13:56:07.807Z,63.71
2022-11-03T14:01:10.590Z,64.28
2022-11-03T14:06:12.174Z,64.78
2022-11-03T14:11:32.276Z,65.01
2022-11-03T14:16:33.869Z,65.30
2022-11-03T14:21:37.558Z,65.50
2022-11-03T14:26:43.214Z,65.28
2022-11-03T14:31:45.128Z,65.01
2022-11-03T14:36:46.723Z,65.92
2022-11-03T14:42:03.524Z,66.01
2022-11-03T14:47:07.517Z,66.35
2022-11-03T14:52:09.706Z,66.33
2022-11-03T14:57:11.457Z,66.62
2022-11-03T15:02:13.770Z,66.61
2022-11-03T15:07:15.439Z,67.04
2022-11-03T15:12:16.992Z,67.08
2022-11-03T15:17:18.570Z,67.41
2022-11-03T15:22:20.218Z,67.28
2022-11-03T15:27:21.947Z,67.66
2022-11-03T15:32:23.514Z,68.01
2022-11-03T15:37:25.433Z,68.37
2022-11-03T15:42:27.023Z,68.66
2022-11-03T15:47:28.591Z,69.02
2022-11-03T15:52:30.126Z,69.21
2022-11-03T15:57:32.661Z,69.04
2022-11-03T16:02:41.467Z,68.98
2022-11-03T16:07:43.798Z,69.07
2022-11-03T16:12:45.866Z,69.20
2022-11-03T16:17:47.401Z,69.55
2022-11-03T16:22:48.980Z,69.40
2022-11-03T16:27:50.664Z,69.78
2022-11-03T16:32:53.502Z,69.93
2022-11-03T16:37:55.090Z,70.05
2022-11-03T16:42:56.972Z,69.46
2022-11-03T16:47:58.822Z,69.80
2022-11-03T16:53:00.395Z,70.04
2022-11-03T16:58:02.065Z,70.06
2022-11-03T17:03:04.668Z,69.85
2022-11-03T17:08:08.107Z,69.75
2022-11-03T17:13:17.670Z,70.27
2022-11-03T17:18:19.224Z,70.17
2022-11-03T17:23:20.798Z,69.82
2022-11-03T17:28:22.583Z,70.36
2022-11-03T17:33:24.211Z,70.37
2022-11-03T17:38:26.471Z,70.33
2022-11-03T17:43:30.087Z,70.28
2022-11-03T17:48:31.736Z,70.02
2022-11-03T17:53:34.318Z,70.27
2022-11-03T17:58:41.756Z,70.20
2022-11-03T18:03:46.614Z,70.58
2022-11-03T18:08:49.317Z,70.58
2022-11-03T18:13:50.874Z,70.59
2022-11-03T18:18:52.525Z,70.63
2022-11-03T18:23:55.613Z,70.58
2022-11-03T18:28:57.418Z,71.19
2022-11-03T18:34:01.365Z,71.64
2022-11-03T18:39:04.582Z,71.80
2022-11-03T18:44:19.478Z,72.04
2022-11-03T18:49:21.528Z,72.81
2022-11-03T18:54:24.997Z,72.40
2022-11-03T18:59:33.129Z,72.70
2022-11-03T19:04:36.864Z,72.60
2022-11-03T19:09:38.849Z,72.60
2022-11-03T19:14:45.097Z,72.79
2022-11-03T19:19:46.989Z,72.74
2022-11-03T19:24:48.879Z,73.23
2022-11-03T19:29:50.534Z,73.22
2022-11-03T19:35:01.511Z,73.36
2022-11-03T19:40:09.418Z,73.53
2022-11-03T19:45:18.185Z,74.22
2022-11-03T19:50:26.229Z,74.41
2022-11-03T19:55:32.652Z,74.40
2022-11-03T20:00:34.203Z,74.70
2022-11-03T20:05:35.969Z,74.45
2022-11-03T20:10:38.640Z,74.35
2022-11-03T20:15:40.205Z,74.64
2022-11-03T20:20:43.799Z,74.46
2022-11-03T20:25:45.989Z,74.70
2022-11-03T20:30:48.968Z,75.45
2022-11-03T20:35:52.199Z,75.35
2022-11-03T20:40:58.778Z,75.14
2022-11-03T20:46:01.031Z,75.21
2022-11-03T20:51:02.595Z,75.66
2022-11-03T20:56:05.519Z,75.66
2022-11-03T21:01:15.109Z,75.60
2022-11-03T21:06:18.702Z,75.56
2022-11-03T21:11:23.378Z,75.64
2022-11-03T21:16:44.774Z,75.81
2022-11-03T21:21:46.504Z,76.05
2022-11-03T21:26:48.096Z,75.80
2022-11-03T21:31:49.681Z,75.47
2022-11-03T21:36:51.231Z,75.72
2022-11-03T21:42:11.278Z,75.81
2022-11-03T21:47:12.810Z,75.78
2022-11-03T21:52:31.611Z,75.72
2022-11-03T21:57:33.335Z,75.95
2022-11-03T22:02:34.853Z,76.79
2022-11-03T22:07:36.397Z,76.14
2022-11-03T22:12:38.196Z,75.94
2022-11-03T22:17:39.726Z,76.34
2022-11-03T22:23:00.023Z,75.91
2022-11-03T22:28:01.600Z,75.92
2022-11-03T22:33:03.185Z,76.51
2022-11-03T22:38:16.647Z,76.75
2022-11-03T22:43:41.292Z,76.29
2022-11-03T22:48:43.537Z,76.76
2022-11-03T22:54:03.293Z,77.00
2022-11-03T22:59:06.672Z,77.51
2022-11-03T23:04:08.356Z,77.98
2022-11-03T23:09:11.412Z,76.97
2022-11-03T23:14:12.949Z,77.47
2022-11-03T23:19:34.090Z,77.66
2022-11-03T23:24:54.366Z,78.28
2022-11-03T23:29:55.944Z,77.71
2022-11-03T23:34:57.488Z,77.74
2022-11-03T23:39:59.004Z,78.12
2022-11-03T23:45:19.105Z,78.59
2022-11-03T23:50:20.642Z,78.71
2022-11-03T23:55:22.194Z,79.06
